sensor_id;sensor_type;location;lat;lon;timestamp;pressure;altitude;pressure_sealevel;temperature;humidity
67038;BME280;53940;53.204;6.590;2024-03-02T00:01:59;99959.91;;;22.23;49.82
67038;BME280;53940;53.204;6.590;2024-03-02T00:05:00;99958.22;;;22.21;49.82
67038;BME280;53940;53.204;6.590;2024-03-02T00:08:00;99964.59;;;22.20;49.73
67038;BME280;53940;53.204;6.590;2024-03-02T00:11:01;99962.91;;;22.19;49.45
67038;BME280;53940;53.204;6.590;2024-03-02T00:14:03;99961.22;;;22.18;49.29
67038;BME280;53940;53.204;6.590;2024-03-02T00:17:03;99956.06;;;22.17;49.39
67038;BME280;53940;53.204;6.590;2024-03-02T00:20:07;99958.06;;;22.15;49.35
67038;BME280;53940;53.204;6.590;2024-03-02T00:23:14;99959.94;;;22.14;49.26
67038;BME280;53940;53.204;6.590;2024-03-02T00:26:15;99956.38;;;22.14;49.20
67038;BME280;53940;53.204;6.590;2024-03-02T00:29:17;99953.88;;;22.12;49.20
67038;BME280;53940;53.204;6.590;2024-03-02T00:32:19;99952.19;;;22.11;49.07
67038;BME280;53940;53.204;6.590;2024-03-02T00:35:21;99959.44;;;22.11;48.88
67038;BME280;53940;53.204;6.590;2024-03-02T00:38:23;99954.22;;;22.09;48.69
67038;BME280;53940;53.204;6.590;2024-03-02T00:41:24;99953.38;;;22.08;48.60
67038;BME280;53940;53.204;6.590;2024-03-02T00:44:25;99949.19;;;22.06;48.31
67038;BME280;53940;53.204;6.590;2024-03-02T00:47:38;99955.56;;;22.05;47.81
67038;BME280;53940;53.204;6.590;2024-03-02T00:50:39;99956.56;;;22.04;47.96
67038;BME280;53940;53.204;6.590;2024-03-02T00:53:39;99942.50;;;22.02;48.05
67038;BME280;53940;53.204;6.590;2024-03-02T00:56:41;99942.50;;;22.02;47.88
67038;BME280;53940;53.204;6.590;2024-03-02T00:59:41;99942.66;;;22.00;47.80
67038;BME280;53940;53.204;6.590;2024-03-02T01:02:42;99943.69;;;21.99;47.74
67038;BME280;53940;53.204;6.590;2024-03-02T01:05:44;99941.16;;;21.98;47.32
67038;BME280;53940;53.204;6.590;2024-03-02T01:08:45;99941.16;;;21.98;47.42
67038;BME280;53940;53.204;6.590;2024-03-02T01:11:46;99935.78;;;21.98;47.33
67038;BME280;53940;53.204;6.590;2024-03-02T01:14:47;99930.44;;;21.98;47.30
67038;BME280;53940;53.204;6.590;2024-03-02T01:17:47;99929.41;;;21.99;47.48
67038;BME280;53940;53.204;6.590;2024-03-02T01:20:48;99917.69;;;22.00;47.28
67038;BME280;53940;53.204;6.590;2024-03-02T01:23:48;99917.69;;;22.00;47.35
67038;BME280;53940;53.204;6.590;2024-03-02T01:26:49;99906.94;;;22.00;47.33
67038;BME280;53940;53.204;6.590;2024-03-02T01:29:49;99896.22;;;22.00;47.13
67038;BME280;53940;53.204;6.590;2024-03-02T01:32:49;99900.56;;;22.01;47.00
67038;BME280;53940;53.204;6.590;2024-03-02T01:35:50;99898.72;;;22.01;46.92
67038;BME280;53940;53.204;6.590;2024-03-02T01:38:50;99904.94;;;22.02;46.96
67038;BME280;53940;53.204;6.590;2024-03-02T01:41:50;99903.94;;;22.03;46.92
67038;BME280;53940;53.204;6.590;2024-03-02T01:44:51;99901.25;;;22.03;46.94
67038;BME280;53940;53.204;6.590;2024-03-02T01:47:51;99908.28;;;22.04;46.55
67038;BME280;53940;53.204;6.590;2024-03-02T01:50:52;99899.22;;;22.05;46.65
67038;BME280;53940;53.204;6.590;2024-03-02T01:53:52;99897.19;;;22.07;46.41
67038;BME280;53940;53.204;6.590;2024-03-02T01:56:53;99894.50;;;22.07;46.36
67038;BME280;53940;53.204;6.590;2024-03-02T01:59:53;99894.50;;;22.07;46.31
67038;BME280;53940;53.204;6.590;2024-03-02T02:02:53;99889.84;;;22.09;46.33
67038;BME280;53940;53.204;6.590;2024-03-02T02:05:54;99894.84;;;22.12;46.29
67038;BME280;53940;53.204;6.590;2024-03-02T02:08:55;99892.00;;;22.14;46.13
67038;BME280;53940;53.204;6.590;2024-03-02T02:11:55;99883.78;;;22.15;46.10
67038;BME280;53940;53.204;6.590;2024-03-02T02:14:55;99878.41;;;22.15;45.90
67038;BME280;53940;53.204;6.590;2024-03-02T02:17:57;99878.06;;;22.18;45.94
67038;BME280;53940;53.204;6.590;2024-03-02T02:20:57;99885.78;;;22.21;45.80
67038;BME280;53940;53.204;6.590;2024-03-02T02:23:58;99875.03;;;22.21;45.91
67038;BME280;53940;53.204;6.590;2024-03-02T02:26:58;99862.28;;;22.24;46.11
67038;BME280;53940;53.204;6.590;2024-03-02T02:29:58;99860.25;;;22.26;45.74
67038;BME280;53940;53.204;6.590;2024-03-02T02:33:01;99883.22;;;22.28;46.08
67038;BME280;53940;53.204;6.590;2024-03-02T02:36:01;99868.81;;;22.29;45.95
67038;BME280;53940;53.204;6.590;2024-03-02T02:39:03;99872.97;;;22.32;45.96
67038;BME280;53940;53.204;6.590;2024-03-02T02:42:05;99872.63;;;22.35;46.05
67038;BME280;53940;53.204;6.590;2024-03-02T02:45:06;99871.44;;;22.38;46.18
67038;BME280;53940;53.204;6.590;2024-03-02T02:48:07;99868.59;;;22.39;46.15
67038;BME280;53940;53.204;6.590;2024-03-02T02:51:07;99861.19;;;22.41;46.38
67038;BME280;53940;53.204;6.590;2024-03-02T02:54:07;99870.75;;;22.44;46.27
67038;BME280;53940;53.204;6.590;2024-03-02T02:57:08;99867.91;;;22.45;46.36
67038;BME280;53940;53.204;6.590;2024-03-02T03:00:10;99864.84;;;22.48;46.31
67038;BME280;53940;53.204;6.590;2024-03-02T03:03:14;99870.06;;;22.50;46.43
67038;BME280;53940;53.204;6.590;2024-03-02T03:06:14;99868.91;;;22.53;46.32
67038;BME280;53940;53.204;6.590;2024-03-02T03:09:14;99864.81;;;22.57;46.39
67038;BME280;53940;53.204;6.590;2024-03-02T03:12:15;99866.53;;;22.58;46.43
67038;BME280;53940;53.204;6.590;2024-03-02T03:15:15;99866.31;;;22.59;46.59
67038;BME280;53940;53.204;6.590;2024-03-02T03:18:16;99860.78;;;22.61;46.61
67038;BME280;53940;53.204;6.590;2024-03-02T03:21:17;99858.78;;;22.63;46.56
67038;BME280;53940;53.204;6.590;2024-03-02T03:24:17;99867.50;;;22.65;46.54
67038;BME280;53940;53.204;6.590;2024-03-02T03:27:17;99864.63;;;22.67;46.64
67038;BME280;53940;53.204;6.590;2024-03-02T03:30:18;99862.59;;;22.69;46.60
67038;BME280;53940;53.204;6.590;2024-03-02T03:33:18;99870.47;;;22.70;46.49
67038;BME280;53940;53.204;6.590;2024-03-02T03:36:19;99864.91;;;22.72;46.50
67038;BME280;53940;53.204;6.590;2024-03-02T03:39:19;99867.44;;;22.73;46.52
67038;BME280;53940;53.204;6.590;2024-03-02T03:42:19;99863.72;;;22.74;46.71
67038;BME280;53940;53.204;6.590;2024-03-02T03:45:20;99868.13;;;22.75;46.72
67038;BME280;53940;53.204;6.590;2024-03-02T03:48:21;99858.19;;;22.76;46.77
67038;BME280;53940;53.204;6.590;2024-03-02T03:51:21;99866.91;;;22.78;46.65
67038;BME280;53940;53.204;6.590;2024-03-02T03:54:24;99864.88;;;22.80;46.80
67038;BME280;53940;53.204;6.590;2024-03-02T03:57:25;99858.66;;;22.80;46.89
67038;BME280;53940;53.204;6.590;2024-03-02T04:00:25;99857.66;;;22.81;46.67
67038;BME280;53940;53.204;6.590;2024-03-02T04:03:25;99840.34;;;22.83;46.64
67038;BME280;53940;53.204;6.590;2024-03-02T04:06:26;99869.88;;;22.83;46.74
67038;BME280;53940;53.204;6.590;2024-03-02T04:09:26;99864.34;;;22.85;46.94
67038;BME280;53940;53.204;6.590;2024-03-02T04:12:26;99868.06;;;22.84;46.86
67038;BME280;53940;53.204;6.590;2024-03-02T04:15:27;99871.38;;;22.86;46.85
67038;BME280;53940;53.204;6.590;2024-03-02T04:18:27;99875.75;;;22.87;46.84
67038;BME280;53940;53.204;6.590;2024-03-02T04:21:27;99873.72;;;22.89;46.82
67038;BME280;53940;53.204;6.590;2024-03-02T04:24:28;99875.75;;;22.87;46.96
67038;BME280;53940;53.204;6.590;2024-03-02T04:27:28;99884.47;;;22.89;46.79
67038;BME280;53940;53.204;6.590;2024-03-02T04:30:28;99880.94;;;22.88;46.95
67038;BME280;53940;53.204;6.590;2024-03-02T04:33:29;99880.78;;;22.90;47.03
67038;BME280;53940;53.204;6.590;2024-03-02T04:36:29;99880.78;;;22.90;46.89
67038;BME280;53940;53.204;6.590;2024-03-02T04:39:29;99873.06;;;22.87;47.34
67038;BME280;53940;53.204;6.590;2024-03-02T04:42:30;99879.75;;;22.91;46.92
67038;BME280;53940;53.204;6.590;2024-03-02T04:45:30;99886.16;;;22.90;47.11
67038;BME280;53940;53.204;6.590;2024-03-02T04:48:31;99886.16;;;22.90;47.05
67038;BME280;53940;53.204;6.590;2024-03-02T04:51:31;99887.81;;;22.91;47.02
67038;BME280;53940;53.204;6.590;2024-03-02T04:54:31;99899.41;;;22.92;47.11
67038;BME280;53940;53.204;6.590;2024-03-02T04:57:32;99898.56;;;22.91;47.12
67038;BME280;53940;53.204;6.590;2024-03-02T05:00:34;99900.22;;;22.92;47.02
67038;BME280;53940;53.204;6.590;2024-03-02T05:03:34;99894.84;;;22.92;47.15
67038;BME280;53940;53.204;6.590;2024-03-02T05:06:35;99900.22;;;22.92;47.16
67038;BME280;53940;53.204;6.590;2024-03-02T05:09:35;99909.31;;;22.91;47.13
67038;BME280;53940;53.204;6.590;2024-03-02T05:12:35;99913.00;;;22.90;47.03
67038;BME280;53940;53.204;6.590;2024-03-02T05:15:44;99914.69;;;22.91;47.31
67038;BME280;53940;53.204;6.590;2024-03-02T05:18:45;99915.69;;;22.90;47.16
67038;BME280;53940;53.204;6.590;2024-03-02T05:21:45;99925.44;;;22.91;47.46
67038;BME280;53940;53.204;6.590;2024-03-02T05:24:45;99920.06;;;22.91;47.45
67038;BME280;53940;53.204;6.590;2024-03-02T05:27:46;99925.44;;;22.91;47.33
67038;BME280;53940;53.204;6.590;2024-03-02T05:30:46;99926.44;;;22.90;47.15
67038;BME280;53940;53.204;6.590;2024-03-02T05:33:47;99925.59;;;22.89;47.35
67038;BME280;53940;53.204;6.590;2024-03-02T05:36:47;99933.66;;;22.89;47.23
67038;BME280;53940;53.204;6.590;2024-03-02T05:39:48;99929.47;;;22.87;47.32
67038;BME280;53940;53.204;6.590;2024-03-02T05:42:48;99942.91;;;22.87;47.52
67038;BME280;53940;53.204;6.590;2024-03-02T05:45:48;99943.91;;;22.86;47.48
67038;BME280;53940;53.204;6.590;2024-03-02T05:48:49;99943.91;;;22.86;47.47
67038;BME280;53940;53.204;6.590;2024-03-02T05:51:49;99953.00;;;22.85;47.40
67038;BME280;53940;53.204;6.590;2024-03-02T05:54:50;99947.63;;;22.85;47.47
67038;BME280;53940;53.204;6.590;2024-03-02T05:57:50;99951.31;;;22.84;47.52
67038;BME280;53940;53.204;6.590;2024-03-02T06:01:06;99957.50;;;22.84;47.61
67038;BME280;53940;53.204;6.590;2024-03-02T06:04:06;99961.22;;;22.83;47.58
67038;BME280;53940;53.204;6.590;2024-03-02T06:07:07;99958.72;;;22.82;47.60
67038;BME280;53940;53.204;6.590;2024-03-02T06:10:07;99969.47;;;22.82;47.72
67038;BME280;53940;53.204;6.590;2024-03-02T06:13:09;99969.47;;;22.82;47.64
67038;BME280;53940;53.204;6.590;2024-03-02T06:16:09;99975.84;;;22.81;47.72
67038;BME280;53940;53.204;6.590;2024-03-02T06:19:09;99980.38;;;22.80;47.82
67038;BME280;53940;53.204;6.590;2024-03-02T06:22:10;99991.94;;;22.81;47.71
67038;BME280;53940;53.204;6.590;2024-03-02T06:25:10;99985.94;;;22.79;47.79
67038;BME280;53940;53.204;6.590;2024-03-02T06:28:10;99989.47;;;22.79;47.72
67038;BME280;53940;53.204;6.590;2024-03-02T06:31:11;99997.69;;;22.78;47.63
67038;BME280;53940;53.204;6.590;2024-03-02T06:34:11;99995.00;;;22.78;47.86
67038;BME280;53940;53.204;6.590;2024-03-02T06:37:12;100009.44;;;22.77;47.84
67038;BME280;53940;53.204;6.590;2024-03-02T06:40:13;100009.44;;;22.77;47.94
67038;BME280;53940;53.204;6.590;2024-03-02T06:43:13;100015.84;;;22.75;48.05
67038;BME280;53940;53.204;6.590;2024-03-02T06:46:13;100023.91;;;22.75;47.92
67038;BME280;53940;53.204;6.590;2024-03-02T06:49:15;100014.13;;;22.74;47.82
67038;BME280;53940;53.204;6.590;2024-03-02T06:52:17;100018.84;;;22.72;47.94
67038;BME280;53940;53.204;6.590;2024-03-02T06:55:18;100029.59;;;22.72;48.01
67038;BME280;53940;53.204;6.590;2024-03-02T06:58:18;100025.06;;;22.73;47.93
67038;BME280;53940;53.204;6.590;2024-03-02T07:01:18;100036.63;;;22.73;47.99
67038;BME280;53940;53.204;6.590;2024-03-02T07:04:22;100033.31;;;22.71;48.21
67038;BME280;53940;53.204;6.590;2024-03-02T07:07:23;100040.34;;;22.72;48.07
67038;BME280;53940;53.204;6.590;2024-03-02T07:10:23;100046.72;;;22.71;48.13
67038;BME280;53940;53.204;6.590;2024-03-02T07:13:24;100040.34;;;22.72;48.10
67038;BME280;53940;53.204;6.590;2024-03-02T07:16:24;100055.59;;;22.72;48.19
67038;BME280;53940;53.204;6.590;2024-03-02T07:19:33;100054.78;;;22.71;48.07
67038;BME280;53940;53.204;6.590;2024-03-02T07:22:33;100058.13;;;22.73;48.12
67038;BME280;53940;53.204;6.590;2024-03-02T07:25:33;100052.75;;;22.73;48.15
67038;BME280;53940;53.204;6.590;2024-03-02T07:28:34;100063.50;;;22.73;48.07
67038;BME280;53940;53.204;6.590;2024-03-02T07:31:34;100065.38;;;22.73;48.13
67038;BME280;53940;53.204;6.590;2024-03-02T07:34:36;100071.56;;;22.73;48.31
67038;BME280;53940;53.204;6.590;2024-03-02T07:37:36;100073.41;;;22.73;48.15
67038;BME280;53940;53.204;6.590;2024-03-02T07:40:36;100072.56;;;22.72;48.40
67038;BME280;53940;53.204;6.590;2024-03-02T07:43:37;100082.97;;;22.75;48.30
67038;BME280;53940;53.204;6.590;2024-03-02T07:46:37;100080.97;;;22.78;48.28
67038;BME280;53940;53.204;6.590;2024-03-02T07:49:38;100088.50;;;22.82;48.37
67038;BME280;53940;53.204;6.590;2024-03-02T07:52:38;100089.16;;;22.84;48.69
67038;BME280;53940;53.204;6.590;2024-03-02T07:55:38;100093.34;;;22.87;48.50
67038;BME280;53940;53.204;6.590;2024-03-02T07:58:39;100104.41;;;22.92;48.63
67038;BME280;53940;53.204;6.590;2024-03-02T08:01:41;100097.03;;;22.94;48.69
67038;BME280;53940;53.204;6.590;2024-03-02T08:04:41;100098.72;;;22.95;48.64
67038;BME280;53940;53.204;6.590;2024-03-02T08:07:43;100098.50;;;22.97;48.52
67038;BME280;53940;53.204;6.590;2024-03-02T08:10:44;100099.19;;;22.99;48.68
67038;BME280;53940;53.204;6.590;2024-03-02T08:13:44;100098.00;;;23.01;48.67
67038;BME280;53940;53.204;6.590;2024-03-02T08:16:45;100097.81;;;23.03;48.56
67038;BME280;53940;53.204;6.590;2024-03-02T08:19:45;100106.72;;;23.04;48.86
67038;BME280;53940;53.204;6.590;2024-03-02T08:22:48;100119.16;;;23.05;48.77
67038;BME280;53940;53.204;6.590;2024-03-02T08:25:48;100122.53;;;23.07;48.79
67038;BME280;53940;53.204;6.590;2024-03-02T08:28:49;100127.91;;;23.07;48.68
67038;BME280;53940;53.204;6.590;2024-03-02T08:31:49;100134.09;;;23.07;48.91
67038;BME280;53940;53.204;6.590;2024-03-02T08:34:49;100127.91;;;23.07;48.84
67038;BME280;53940;53.204;6.590;2024-03-02T08:37:50;100127.91;;;23.07;48.84
67038;BME280;53940;53.204;6.590;2024-03-02T08:40:51;100142.31;;;23.06;48.61
67038;BME280;53940;53.204;6.590;2024-03-02T08:43:51;100141.50;;;23.05;48.73
67038;BME280;53940;53.204;6.590;2024-03-02T08:46:52;100145.19;;;23.04;48.91
67038;BME280;53940;53.204;6.590;2024-03-02T08:49:52;100144.34;;;23.04;48.84
67038;BME280;53940;53.204;6.590;2024-03-02T08:52:53;100141.81;;;23.02;48.87
67038;BME280;53940;53.204;6.590;2024-03-02T08:55:53;100151.75;;;23.01;48.83
67038;BME280;53940;53.204;6.590;2024-03-02T08:58:55;100155.25;;;23.02;48.86
67038;BME280;53940;53.204;6.590;2024-03-02T09:01:56;100155.47;;;23.00;49.01
67038;BME280;53940;53.204;6.590;2024-03-02T09:04:57;100160.84;;;23.00;49.04
67038;BME280;53940;53.204;6.590;2024-03-02T09:07:58;100152.09;;;22.98;49.07
67038;BME280;53940;53.204;6.590;2024-03-02T09:10:59;100152.94;;;22.99;49.14
67038;BME280;53940;53.204;6.590;2024-03-02T09:13:59;100156.63;;;22.98;48.96
67038;BME280;53940;53.204;6.590;2024-03-02T09:16:59;100150.25;;;22.99;49.42
67038;BME280;53940;53.204;6.590;2024-03-02T09:20:00;100151.06;;;22.99;49.38
67038;BME280;53940;53.204;6.590;2024-03-02T09:23:00;100157.13;;;23.01;49.31
67038;BME280;53940;53.204;6.590;2024-03-02T09:26:01;100154.44;;;23.01;49.36
67038;BME280;53940;53.204;6.590;2024-03-02T09:29:01;100144.72;;;23.00;49.26
67038;BME280;53940;53.204;6.590;2024-03-02T09:32:02;100140.31;;;22.99;49.27
67038;BME280;53940;53.204;6.590;2024-03-02T09:35:02;100154.44;;;23.01;49.28
67038;BME280;53940;53.204;6.590;2024-03-02T09:38:03;100149.22;;;23.00;49.36
67038;BME280;53940;53.204;6.590;2024-03-02T09:41:03;100157.13;;;23.01;49.46
67038;BME280;53940;53.204;6.590;2024-03-02T09:44:05;100161.50;;;23.02;49.39
67038;BME280;53940;53.204;6.590;2024-03-02T09:47:06;100151.06;;;22.99;49.22
67038;BME280;53940;53.204;6.590;2024-03-02T09:50:07;100163.31;;;23.02;49.47
67038;BME280;53940;53.204;6.590;2024-03-02T09:53:08;100154.25;;;23.03;49.41
67038;BME280;53940;53.204;6.590;2024-03-02T09:56:08;100155.09;;;23.04;49.32
67038;BME280;53940;53.204;6.590;2024-03-02T09:59:09;100156.94;;;23.03;49.48
67038;BME280;53940;53.204;6.590;2024-03-02T10:02:09;100165.84;;;23.04;49.42
67038;BME280;53940;53.204;6.590;2024-03-02T10:05:10;100165.69;;;23.05;49.38
67038;BME280;53940;53.204;6.590;2024-03-02T10:08:11;100170.03;;;23.06;49.51
67038;BME280;53940;53.204;6.590;2024-03-02T10:11:25;100175.41;;;23.06;49.56
67038;BME280;53940;53.204;6.590;2024-03-02T10:14:27;100161.81;;;23.08;49.48
67038;BME280;53940;53.204;6.590;2024-03-02T10:17:31;100166.19;;;23.09;49.44
67038;BME280;53940;53.204;6.590;2024-03-02T10:20:31;100158.94;;;23.09;49.42
67038;BME280;53940;53.204;6.590;2024-03-02T10:23:33;100155.25;;;23.10;49.57
67038;BME280;53940;53.204;6.590;2024-03-02T10:26:33;100150.72;;;23.11;49.61
67038;BME280;53940;53.204;6.590;2024-03-02T10:29:36;100156.94;;;23.11;49.65
67038;BME280;53940;53.204;6.590;2024-03-02T10:32:37;100158.59;;;23.12;49.64
67038;BME280;53940;53.204;6.590;2024-03-02T10:35:38;100160.28;;;23.13;49.77
67038;BME280;53940;53.204;6.590;2024-03-02T10:38:40;100154.91;;;23.13;49.60
67038;BME280;53940;53.204;6.590;2024-03-02T10:41:41;100139.63;;;23.14;49.75
67038;BME280;53940;53.204;6.590;2024-03-02T10:44:42;100138.63;;;23.15;49.74
67038;BME280;53940;53.204;6.590;2024-03-02T10:47:43;100145.81;;;23.14;49.73
67038;BME280;53940;53.204;6.590;2024-03-02T10:50:45;100145.66;;;23.16;49.75
67038;BME280;53940;53.204;6.590;2024-03-02T10:53:45;100146.69;;;23.15;49.60
67038;BME280;53940;53.204;6.590;2024-03-02T10:56:46;100142.97;;;23.16;49.81
67038;BME280;53940;53.204;6.590;2024-03-02T10:59:56;100145.00;;;23.14;49.94
67038;BME280;53940;53.204;6.590;2024-03-02T11:03:02;100148.34;;;23.16;49.92
67038;BME280;53940;53.204;6.590;2024-03-02T11:06:08;100153.72;;;23.16;49.95
67038;BME280;53940;53.204;6.590;2024-03-02T11:09:09;100151.03;;;23.16;50.01
67038;BME280;53940;53.204;6.590;2024-03-02T11:12:19;100147.50;;;23.15;50.10
67038;BME280;53940;53.204;6.590;2024-03-02T11:15:20;100151.88;;;23.17;50.03
67038;BME280;53940;53.204;6.590;2024-03-02T11:18:26;100150.00;;;23.17;49.95
67038;BME280;53940;53.204;6.590;2024-03-02T11:21:27;100150.00;;;23.17;50.01
67038;BME280;53940;53.204;6.590;2024-03-02T11:24:28;100150.00;;;23.17;50.05
67038;BME280;53940;53.204;6.590;2024-03-02T11:33:45;100146.31;;;23.18;50.05
67038;BME280;53940;53.204;6.590;2024-03-02T11:36:46;100140.94;;;23.18;49.93
67038;BME280;53940;53.204;6.590;2024-03-02T11:39:50;100139.28;;;23.17;50.19
67038;BME280;53940;53.204;6.590;2024-03-02T11:42:51;100133.88;;;23.17;50.05
67038;BME280;53940;53.204;6.590;2024-03-02T11:46:00;100133.88;;;23.17;50.20
67038;BME280;53940;53.204;6.590;2024-03-02T11:49:00;100139.28;;;23.17;50.04
67038;BME280;53940;53.204;6.590;2024-03-02T11:52:01;100143.63;;;23.18;50.09
67038;BME280;53940;53.204;6.590;2024-03-02T11:55:02;100140.13;;;23.18;50.06
67038;BME280;53940;53.204;6.590;2024-03-02T11:58:04;100133.88;;;23.17;50.07
67038;BME280;53940;53.204;6.590;2024-03-02T12:01:04;100131.19;;;23.17;50.21
67038;BME280;53940;53.204;6.590;2024-03-02T12:04:06;100128.50;;;23.17;50.07
67038;BME280;53940;53.204;6.590;2024-03-02T12:07:07;100123.13;;;23.17;50.22
67038;BME280;53940;53.204;6.590;2024-03-02T12:10:09;100132.22;;;23.16;50.18
67038;BME280;53940;53.204;6.590;2024-03-02T12:13:10;100126.84;;;23.16;50.15
67038;BME280;53940;53.204;6.590;2024-03-02T12:16:11;100137.59;;;23.16;50.25
67038;BME280;53940;53.204;6.590;2024-03-02T12:19:11;100128.69;;;23.15;50.25
67038;BME280;53940;53.204;6.590;2024-03-02T12:22:12;100128.88;;;23.14;50.23
67038;BME280;53940;53.204;6.590;2024-03-02T12:25:12;100130.56;;;23.15;50.42
67038;BME280;53940;53.204;6.590;2024-03-02T12:28:13;100126.19;;;23.14;50.33
67038;BME280;53940;53.204;6.590;2024-03-02T12:31:13;100123.50;;;23.14;50.31
67038;BME280;53940;53.204;6.590;2024-03-02T12:34:15;100125.34;;;23.13;50.26
67038;BME280;53940;53.204;6.590;2024-03-02T12:37:16;100129.69;;;23.14;50.30
67038;BME280;53940;53.204;6.590;2024-03-02T12:40:17;100134.25;;;23.14;50.30
67038;BME280;53940;53.204;6.590;2024-03-02T12:43:18;100136.25;;;23.12;50.05
67038;BME280;53940;53.204;6.590;2024-03-02T12:46:19;100141.63;;;23.12;49.83
67038;BME280;53940;53.204;6.590;2024-03-02T12:49:22;100138.28;;;23.10;49.91
67038;BME280;53940;53.204;6.590;2024-03-02T12:52:22;100142.00;;;23.09;49.94
67038;BME280;53940;53.204;6.590;2024-03-02T12:55:23;100138.28;;;23.10;49.96
67038;BME280;53940;53.204;6.590;2024-03-02T12:58:26;100132.06;;;23.09;50.10
67038;BME280;53940;53.204;6.590;2024-03-02T13:01:27;100128.56;;;23.09;49.91
67038;BME280;53940;53.204;6.590;2024-03-02T13:04:29;100129.56;;;23.08;50.07
67038;BME280;53940;53.204;6.590;2024-03-02T13:07:30;100140.31;;;23.08;49.70
67038;BME280;53940;53.204;6.590;2024-03-02T13:10:30;100134.09;;;23.07;50.02
67038;BME280;53940;53.204;6.590;2024-03-02T13:13:31;100133.28;;;23.07;50.10
67038;BME280;53940;53.204;6.590;2024-03-02T13:16:31;100126.19;;;23.06;50.07
67038;BME280;53940;53.204;6.590;2024-03-02T13:19:32;100134.25;;;23.06;50.26
67038;BME280;53940;53.204;6.590;2024-03-02T13:22:32;100124.53;;;23.05;50.04
67038;BME280;53940;53.204;6.590;2024-03-02T13:25:33;100121.03;;;23.04;50.22
67038;BME280;53940;53.204;6.590;2024-03-02T13:28:34;100122.84;;;23.04;50.14
67038;BME280;53940;53.204;6.590;2024-03-02T13:31:34;100129.25;;;23.02;50.21
67038;BME280;53940;53.204;6.590;2024-03-02T13:34:34;100126.56;;;23.02;50.04
67038;BME280;53940;53.204;6.590;2024-03-02T13:37:35;100117.84;;;23.00;50.13
67038;BME280;53940;53.204;6.590;2024-03-02T13:40:35;100113.66;;;22.98;50.00
67038;BME280;53940;53.204;6.590;2024-03-02T13:43:36;100114.47;;;22.98;50.05
67038;BME280;53940;53.204;6.590;2024-03-02T13:46:38;100114.63;;;22.97;50.11
67038;BME280;53940;53.204;6.590;2024-03-02T13:49:39;100107.44;;;22.97;50.21
67038;BME280;53940;53.204;6.590;2024-03-02T13:52:43;100107.44;;;22.97;50.20
67038;BME280;53940;53.204;6.590;2024-03-02T13:55:44;100106.78;;;22.95;50.20
67038;BME280;53940;53.204;6.590;2024-03-02T13:58:45;100104.09;;;22.95;50.14
67038;BME280;53940;53.204;6.590;2024-03-02T14:01:46;100108.59;;;22.95;50.20
67038;BME280;53940;53.204;6.590;2024-03-02T14:04:48;100099.88;;;22.93;50.10
67038;BME280;53940;53.204;6.590;2024-03-02T14:07:49;100092.34;;;22.88;50.26
67038;BME280;53940;53.204;6.590;2024-03-02T14:10:50;100090.00;;;22.85;50.16
67038;BME280;53940;53.204;6.590;2024-03-02T14:13:50;100092.84;;;22.83;50.14
67038;BME280;53940;53.204;6.590;2024-03-02T14:16:54;100092.19;;;22.81;50.24
67038;BME280;53940;53.204;6.590;2024-03-02T14:19:55;100083.28;;;22.81;50.20
67038;BME280;53940;53.204;6.590;2024-03-02T14:22:57;100075.22;;;22.81;50.15
67038;BME280;53940;53.204;6.590;2024-03-02T14:25:59;100084.13;;;22.81;50.08
67038;BME280;53940;53.204;6.590;2024-03-02T14:28:59;100075.22;;;22.81;49.98
67038;BME280;53940;53.204;6.590;2024-03-02T14:32:02;100071.88;;;22.79;50.05
67038;BME280;53940;53.204;6.590;2024-03-02T14:35:03;100071.22;;;22.77;49.90
67038;BME280;53940;53.204;6.590;2024-03-02T14:38:04;100074.72;;;22.77;50.01
67038;BME280;53940;53.204;6.590;2024-03-02T14:41:04;100072.72;;;22.79;50.11
67038;BME280;53940;53.204;6.590;2024-03-02T14:44:05;100078.09;;;22.79;49.89
67038;BME280;53940;53.204;6.590;2024-03-02T14:47:05;100074.41;;;22.80;49.90
67038;BME280;53940;53.204;6.590;2024-03-02T14:50:07;100074.25;;;22.82;49.76
67038;BME280;53940;53.204;6.590;2024-03-02T14:53:09;100076.72;;;22.83;49.90
67038;BME280;53940;53.204;6.590;2024-03-02T14:56:09;100077.59;;;22.84;49.92
67038;BME280;53940;53.204;6.590;2024-03-02T14:59:09;100071.03;;;22.86;49.87
67038;BME280;53940;53.204;6.590;2024-03-02T15:02:10;100070.19;;;22.86;49.86
67038;BME280;53940;53.204;6.590;2024-03-02T15:05:11;100066.66;;;22.85;49.74
67038;BME280;53940;53.204;6.590;2024-03-02T15:08:11;100072.03;;;22.85;49.48
67038;BME280;53940;53.204;6.590;2024-03-02T15:11:12;100060.44;;;22.85;49.47
67038;BME280;53940;53.204;6.590;2024-03-02T15:14:12;100062.13;;;22.86;49.18
67038;BME280;53940;53.204;6.590;2024-03-02T15:17:14;100060.28;;;22.86;49.50
67038;BME280;53940;53.204;6.590;2024-03-02T15:20:18;100062.13;;;22.86;49.45
67038;BME280;53940;53.204;6.590;2024-03-02T15:23:21;100060.44;;;22.85;49.28
67038;BME280;53940;53.204;6.590;2024-03-02T15:26:21;100064.16;;;22.84;49.26
67038;BME280;53940;53.204;6.590;2024-03-02T15:29:22;100054.41;;;22.83;49.46
67038;BME280;53940;53.204;6.590;2024-03-02T15:32:24;100040.31;;;22.81;49.22
67038;BME280;53940;53.204;6.590;2024-03-02T15:35:26;100044.00;;;22.80;49.25
67038;BME280;53940;53.204;6.590;2024-03-02T15:38:27;100041.47;;;22.78;49.23
67038;BME280;53940;53.204;6.590;2024-03-02T15:41:27;100041.69;;;22.77;49.13
67038;BME280;53940;53.204;6.590;2024-03-02T15:44:27;100047.06;;;22.77;49.22
67038;BME280;53940;53.204;6.590;2024-03-02T15:47:28;100049.06;;;22.74;49.37
67038;BME280;53940;53.204;6.590;2024-03-02T15:50:28;100052.75;;;22.73;49.38
67038;BME280;53940;53.204;6.590;2024-03-02T15:53:29;100050.22;;;22.72;49.33
67038;BME280;53940;53.204;6.590;2024-03-02T15:56:29;100047.75;;;22.70;49.31
67038;BME280;53940;53.204;6.590;2024-03-02T15:59:30;100046.06;;;22.69;49.32